Laserfiche WebLink
Name Page count Template name Date created Date modified
Amendments[Icon] 11/8/2016 2:15:38 PM 11/8/2016 2:17:22 PM
Complete La Vergne Municipal Code - Revised through 2015-09-15[Icon] 428 11/10/2015 12:26:08 PM 11/10/2015 12:26:55 PM
La Vergne City Charter[Icon] 40 11/10/2015 12:26:55 PM 11/10/2015 12:26:59 PM
Title 01 - General Administration[Icon] 6 11/10/2015 12:26:59 PM 11/10/2015 12:27:00 PM
Title 02 - Boards and Commissions, Etc[Icon] 11 11/10/2015 12:27:00 PM 11/10/2015 12:27:01 PM
Title 03 - Municipal Court[Icon] 11 11/10/2015 12:27:01 PM 11/10/2015 12:27:02 PM
Title 04 - Municipal Personnel[Icon] 24 11/10/2015 12:27:02 PM 11/10/2015 12:27:04 PM
Title 05 - Municipal Finance and Taxation[Icon] 10 11/10/2015 12:27:05 PM 11/10/2015 12:27:05 PM
Title 06 - Law Enforcement[Icon] 4 11/10/2015 12:27:06 PM 11/10/2015 12:27:06 PM
Title 07 - Fire Protection and Fireworks[Icon] 33 11/10/2015 12:27:06 PM 11/10/2015 12:27:09 PM
Title 08 - Alcoholic Beverages[Icon] 30 11/10/2015 12:27:10 PM 11/10/2015 12:27:13 PM
Title 09 - Business, Peddlers, Solicitors, Etc[Icon] 35 11/10/2015 12:27:13 PM 11/10/2015 12:27:16 PM
Title 10 - Animal Control[Icon] 6 11/10/2015 12:27:16 PM 11/10/2015 12:27:18 PM
Title 11 - Municipal Offenses[Icon] 12 11/10/2015 12:27:18 PM 11/10/2015 12:27:19 PM
Title 12 - Building, Utility, Etc Codes[Icon] 22 11/10/2015 12:27:20 PM 11/10/2015 12:27:22 PM
Title 13 - Property Maintenance Regulations[Icon] 21 11/10/2015 12:27:22 PM 11/10/2015 12:27:24 PM
Title 14 - Zoning and Land Use Control[Icon] 52 11/10/2015 12:27:24 PM 11/10/2015 12:27:30 PM
Title 15 - Motor Vehicles, Traffic and Parking[Icon] 23 11/10/2015 12:27:30 PM 11/10/2015 12:27:32 PM
Title 16 - Streets and Sidewalks, Etc[Icon] 11 11/10/2015 12:27:32 PM 11/10/2015 12:27:34 PM
Title 17 - Refuse and Trash Disposal[Icon] 2 11/10/2015 12:27:34 PM 11/10/2015 12:27:34 PM
Title 18 - Water and Sewers[Icon] 83 11/10/2015 12:27:34 PM 11/10/2015 12:27:43 PM
Title 19 - Electricity and Gas[Icon] 1 11/10/2015 12:27:43 PM 11/10/2015 12:27:43 PM
Title 20 - Miscellaneous[Icon] 23 11/10/2015 12:27:43 PM 11/10/2015 12:27:46 PM
Page 1 of 1
23 Entries
Document management portal powered by Laserfiche WebLink 9 © 1998-2015 Laserfiche. All rights reserved.